Time;durP1;ratioP1;P1;durP2;ratioP2;P2;SDS_P1;SDS_P2;PMS_P1;PMS_P2;Temp;Humidity;BMP_temperature;BMP_pressure;BME280_temperature;BME280_humidity;BME280_pressure;Samples;Min_cycle;Max_cycle;Signal;HPM_P1;HPM_P2
2023/08/08 00:01:14;;;;;;;2.10;1.30;;;;;;;17.58;55.69;100909.72;5032248;27;97084;-55
2023/08/08 00:03:39;;;;;;;1.90;1.17;;;;;;;17.55;55.84;100893.34;5033883;27;97469;-53
2023/08/08 00:06:05;;;;;;;1.13;1.07;;;;;;;17.54;55.93;100892.59;5035726;27;99404;-55
2023/08/08 00:08:30;;;;;;;1.70;1.53;;;;;;;17.54;55.95;100897.44;5031862;27;97196;-54
2023/08/08 00:10:56;;;;;;;1.47;1.37;;;;;;;17.53;55.95;100891.13;5030196;27;97424;-53
2023/08/08 00:13:22;;;;;;;1.33;1.23;;;;;;;17.53;55.90;100888.34;5035532;27;97682;-54
2023/08/08 00:15:47;;;;;;;1.53;1.23;;;;;;;17.51;55.92;100888.13;5035516;27;97276;-54
2023/08/08 00:18:13;;;;;;;1.40;1.30;;;;;;;17.52;56.04;100886.06;5035521;27;102068;-53
2023/08/08 00:20:39;;;;;;;1.37;1.27;;;;;;;17.52;56.12;100884.03;5036122;27;96818;-54
2023/08/08 00:23:04;;;;;;;1.60;1.33;;;;;;;17.51;56.17;100876.25;5035881;27;97205;-55
2023/08/08 00:25:30;;;;;;;1.67;0.90;;;;;;;17.50;55.94;100880.28;5036753;27;96836;-55
2023/08/08 00:27:55;;;;;;;1.17;1.07;;;;;;;17.48;55.97;100880.81;5037949;27;96830;-54
2023/08/08 00:30:20;;;;;;;1.73;1.23;;;;;;;17.49;56.12;100870.44;5034749;27;96846;-54
2023/08/08 00:32:46;;;;;;;4.37;1.20;;;;;;;17.49;56.25;100859.31;5034845;27;97401;-54
2023/08/08 00:35:11;;;;;;;1.37;1.20;;;;;;;17.46;56.23;100863.16;5037735;27;97151;-53
2023/08/08 00:37:36;;;;;;;2.30;1.30;;;;;;;17.46;56.30;100868.72;5038458;27;97402;-54
2023/08/08 00:40:02;;;;;;;1.10;1.00;;;;;;;17.46;56.33;100863.91;5041112;27;97336;-54
2023/08/08 00:42:27;;;;;;;6.10;1.43;;;;;;;17.47;56.20;100865.41;5034063;27;97440;-53
2023/08/08 00:44:53;;;;;;;4.30;1.27;;;;;;;17.44;56.36;100855.34;5032603;27;111608;-56
2023/08/08 00:47:18;;;;;;;1.73;1.20;;;;;;;17.42;56.53;100852.34;5035203;27;97258;-54
2023/08/08 00:49:46;;;;;;;1.73;1.30;;;;;;;17.45;56.48;100856.09;5037021;27;97390;-53
2023/08/08 00:52:12;;;;;;;1.40;1.30;;;;;;;17.42;56.50;100841.22;5033811;27;97261;-53
2023/08/08 00:54:38;;;;;;;2.07;1.23;;;;;;;17.43;56.55;100842.00;5033997;27;97071;-54
2023/08/08 00:57:04;;;;;;;1.70;1.30;;;;;;;17.38;56.67;100843.59;5037854;27;97076;-54
2023/08/08 00:59:29;;;;;;;2.03;1.33;;;;;;;17.38;56.70;100838.03;5035135;27;96969;-53
2023/08/08 01:01:55;;;;;;;1.53;1.27;;;;;;;17.39;56.77;100836.72;5037030;27;97462;-55
2023/08/08 01:04:25;;;;;;;2.83;1.40;;;;;;;17.45;56.79;100844.97;5033512;27;97487;-53
2023/08/08 01:07:01;;;;;;;2.27;1.60;;;;;;;17.46;56.72;100840.91;5035765;27;96776;-53
2023/08/08 01:09:34;;;;;;;1.50;1.40;;;;;;;17.45;56.85;100837.38;5034283;27;101381;-54
2023/08/08 01:12:01;;;;;;;2.20;1.40;;;;;;;17.41;56.94;100831.38;5032252;27;97565;-53
2023/08/08 01:14:29;;;;;;;2.13;1.30;;;;;;;17.41;56.94;100834.16;5036888;27;96833;-52
2023/08/08 01:16:57;;;;;;;5.03;1.50;;;;;;;17.39;57.05;100836.72;5034612;27;96987;-55
2023/08/08 01:19:31;;;;;;;1.80;1.10;;;;;;;17.42;57.07;100829.34;5031295;27;96774;-55
2023/08/08 01:22:04;;;;;;;1.80;1.40;;;;;;;17.41;57.22;100823.03;5035527;27;97590;-53
2023/08/08 01:24:32;;;;;;;2.80;1.20;;;;;;;17.40;57.14;100821.56;5034356;27;99287;-52
2023/08/08 01:26:59;;;;;;;1.40;1.30;;;;;;;17.38;57.12;100813.00;5034833;27;97437;-54
2023/08/08 01:29:24;;;;;;;1.67;1.50;;;;;;;17.39;57.29;100816.50;5037711;27;96889;-51
2023/08/08 01:31:50;;;;;;;1.97;1.40;;;;;;;17.37;57.31;100811.47;5034221;27;98960;-51
2023/08/08 01:34:15;;;;;;;2.60;1.60;;;;;;;17.36;57.29;100812.78;5033865;27;98480;-52
2023/08/08 01:36:59;;;;;;;2.07;1.37;;;;;;;17.35;57.56;100816.84;5033823;27;97014;-53
2023/08/08 01:39:30;;;;;;;1.30;1.20;;;;;;;17.38;57.47;100818.56;5035269;27;96777;-53
2023/08/08 01:41:56;;;;;;;3.30;1.50;;;;;;;17.38;57.40;100815.78;5032227;27;96948;-52
2023/08/08 01:44:23;;;;;;;1.73;1.30;;;;;;;17.36;57.58;100815.56;5034441;27;97281;-54
2023/08/08 01:46:49;;;;;;;7.60;1.70;;;;;;;17.37;57.54;100819.06;5036660;27;97519;-54
2023/08/08 01:49:14;;;;;;;1.30;1.20;;;;;;;17.42;57.56;100821.00;5036049;27;97514;-52
2023/08/08 01:51:39;;;;;;;1.80;1.40;;;;;;;17.41;57.51;100825.09;5033792;27;97153;-53
2023/08/08 01:54:05;;;;;;;3.27;1.50;;;;;;;17.40;57.49;100827.13;5033367;27;102434;-52
2023/08/08 01:56:30;;;;;;;2.40;1.60;;;;;;;17.38;57.54;100821.34;5035597;27;96789;-52
2023/08/08 01:58:56;;;;;;;2.17;1.43;;;;;;;17.38;57.53;100823.38;5037635;27;97015;-52
2023/08/08 02:01:21;;;;;;;2.23;1.70;;;;;;;17.37;57.56;100814.25;5035751;27;97378;-52
2023/08/08 02:03:47;;;;;;;1.37;1.27;;;;;;;17.33;57.70;100810.31;5036136;27;97707;-52
2023/08/08 02:06:12;;;;;;;1.87;1.70;;;;;;;17.33;57.81;100808.28;5034697;27;97838;-52
2023/08/08 02:08:37;;;;;;;1.20;1.20;;;;;;;17.29;57.86;100805.06;5035161;27;96847;-54
2023/08/08 02:11:03;;;;;;;2.70;1.57;;;;;;;17.29;57.79;100799.53;5034936;27;96749;-52
2023/08/08 02:13:28;;;;;;;1.20;1.10;;;;;;;17.29;57.79;100802.28;5034333;27;108001;-52
2023/08/08 02:15:53;;;;;;;1.47;1.37;;;;;;;17.28;57.86;100811.91;5035879;27;97166;-52
2023/08/08 02:18:19;;;;;;;1.40;1.30;;;;;;;17.27;58.13;100796.53;5032703;27;97200;-53
2023/08/08 02:20:44;;;;;;;2.97;1.67;;;;;;;17.27;57.92;100807.66;5035230;27;97334;-53
2023/08/08 02:23:09;;;;;;;1.50;1.27;;;;;;;17.26;58.02;100806.13;5034630;27;98071;-53
2023/08/08 02:25:35;;;;;;;1.60;1.50;;;;;;;17.25;58.02;100801.88;5034590;27;100682;-52
2023/08/08 02:28:00;;;;;;;2.50;1.50;;;;;;;17.24;58.03;100801.13;5033411;27;100713;-54
2023/08/08 02:30:25;;;;;;;1.57;1.47;;;;;;;17.24;58.09;100800.38;5033387;27;97582;-53
2023/08/08 02:32:51;;;;;;;1.30;1.17;;;;;;;17.23;58.21;100807.94;5033757;27;97426;-52
2023/08/08 02:35:16;;;;;;;3.90;1.43;;;;;;;17.20;58.19;100797.91;5032894;27;96840;-52
2023/08/08 02:37:41;;;;;;;1.50;1.40;;;;;;;17.19;58.22;100790.09;5036720;27;97145;-54
2023/08/08 02:40:07;;;;;;;1.60;1.50;;;;;;;17.21;58.25;100796.63;5034632;27;108212;-54
2023/08/08 02:42:33;;;;;;;4.17;1.50;;;;;;;17.21;58.34;100798.66;5032693;27;97272;-53
2023/08/08 02:44:58;;;;;;;2.40;1.67;;;;;;;17.21;58.41;100798.66;5031172;27;96823;-52
2023/08/08 02:47:24;;;;;;;5.70;1.10;;;;;;;17.20;58.41;100797.91;5033421;27;97551;-52
2023/08/08 02:49:50;;;;;;;1.57;1.20;;;;;;;17.19;58.61;100787.31;5033536;27;96747;-52
2023/08/08 02:52:15;;;;;;;4.23;1.47;;;;;;;17.20;58.61;100789.56;5036139;27;97543;-53
2023/08/08 02:54:40;;;;;;;2.10;1.33;;;;;;;17.21;58.62;100784.78;5036105;27;97039;-52
2023/08/08 02:57:06;;;;;;;3.03;1.30;;;;;;;17.23;58.71;100790.53;5033615;27;97076;-52
2023/08/08 02:59:31;;;;;;;2.00;1.70;;;;;;;17.22;58.34;100800.91;5032132;27;97321;-52
2023/08/08 03:01:57;;;;;;;3.53;1.50;;;;;;;17.24;58.59;100789.25;5033532;27;97477;-52
2023/08/08 03:04:22;;;;;;;4.33;1.87;;;;;;;17.25;58.78;100787.97;5033813;27;97365;-52
2023/08/08 03:06:47;;;;;;;1.30;1.20;;;;;;;17.25;58.84;100782.41;5031443;27;96555;-52
2023/08/08 03:09:13;;;;;;;1.50;1.40;;;;;;;17.27;58.76;100779.84;5030450;27;97106;-52
2023/08/08 03:11:41;;;;;;;1.77;1.67;;;;;;;17.27;58.82;100785.41;5029033;27;97180;-53
2023/08/08 03:14:06;;;;;;;2.23;1.50;;;;;;;17.25;58.90;100774.06;5033957;27;97238;-52
2023/08/08 03:16:32;;;;;;;1.63;1.20;;;;;;;17.25;58.99;100777.56;5034197;27;97444;-52
2023/08/08 03:18:58;;;;;;;1.43;1.33;;;;;;;17.23;59.04;100777.38;5033071;27;99330;-52
2023/08/08 03:21:23;;;;;;;1.30;1.20;;;;;;;17.19;59.26;100773.41;5033646;27;97178;-52
2023/08/08 03:23:49;;;;;;;1.60;1.50;;;;;;;17.23;59.11;100768.28;5033658;27;97362;-52
2023/08/08 03:26:14;;;;;;;3.40;2.30;;;;;;;17.23;59.26;100771.81;5033644;27;97182;-51
2023/08/08 03:28:39;;;;;;;3.33;2.00;;;;;;;17.24;59.34;100769.78;5033873;27;102429;-52
2023/08/08 03:31:04;;;;;;;1.87;1.70;;;;;;;17.23;59.33;100757.91;5033202;27;105612;-52
2023/08/08 03:33:30;;;;;;;2.23;1.43;;;;;;;17.23;59.27;100766.25;5031347;27;96765;-52
2023/08/08 03:35:55;;;;;;;2.20;1.50;;;;;;;17.24;59.32;100758.66;5034771;27;97264;-52
2023/08/08 03:38:20;;;;;;;1.53;1.43;;;;;;;17.24;59.42;100758.66;5035014;27;97150;-52
2023/08/08 03:40:46;;;;;;;3.73;1.70;;;;;;;17.24;59.47;100767.75;5033205;27;99240;-52
2023/08/08 03:43:11;;;;;;;2.00;1.43;;;;;;;17.25;59.47;100754.59;5033760;27;96792;-52
2023/08/08 03:45:36;;;;;;;1.47;1.33;;;;;;;17.27;59.57;100762.41;5030391;27;96679;-52
2023/08/08 03:48:02;;;;;;;2.33;1.80;;;;;;;17.28;59.48;100753.50;5027035;27;97457;-52
2023/08/08 03:50:27;;;;;;;2.00;1.50;;;;;;;17.29;59.50;100755.03;5029246;27;97668;-53
2023/08/08 03:52:53;;;;;;;2.50;1.67;;;;;;;17.28;59.62;100750.72;5030966;27;96713;-53
2023/08/08 03:55:18;;;;;;;1.30;1.20;;;;;;;17.30;59.73;100753.00;5032795;27;97023;-53
2023/08/08 03:57:44;;;;;;;2.30;1.50;;;;;;;17.30;59.67;100762.06;5031047;27;97521;-53
2023/08/08 04:00:11;;;;;;;5.50;1.30;;;;;;;17.30;59.79;100756.50;5028588;27;97085;-53
2023/08/08 04:02:36;;;;;;;1.43;1.33;;;;;;;17.34;59.82;100754.16;5034779;27;97046;-53
2023/08/08 04:05:02;;;;;;;3.53;2.20;;;;;;;17.48;59.86;100761.19;5030530;27;97275;-52
2023/08/08 04:07:27;;;;;;;4.00;1.53;;;;;;;17.39;59.91;100747.72;5029923;27;96988;-53
2023/08/08 04:09:53;;;;;;;2.03;1.83;;;;;;;17.38;59.90;100751.81;5039824;27;108099;-53
2023/08/08 04:12:18;;;;;;;1.70;1.60;;;;;;;17.39;59.95;100758.09;5030035;27;96859;-52
2023/08/08 04:14:43;;;;;;;1.83;1.60;;;;;;;17.39;59.95;100753.28;5029556;27;97049;-53
2023/08/08 04:17:09;;;;;;;1.73;1.63;;;;;;;17.39;59.97;100760.88;5033559;27;111066;-54
2023/08/08 04:19:34;;;;;;;1.93;1.50;;;;;;;17.40;59.96;100749.25;5029993;27;97244;-54
2023/08/08 04:21:59;;;;;;;2.63;2.10;;;;;;;17.39;59.91;100752.53;5030011;27;96745;-53
2023/08/08 04:24:25;;;;;;;1.70;1.60;;;;;;;17.39;60.03;100738.63;5029502;27;97052;-54
2023/08/08 04:26:50;;;;;;;1.90;1.70;;;;;;;17.40;60.06;100737.34;5034038;27;96839;-54
2023/08/08 04:29:15;;;;;;;2.43;1.43;;;;;;;17.38;60.01;100735.13;5029176;27;103740;-54
2023/08/08 04:31:41;;;;;;;1.90;1.47;;;;;;;17.41;60.06;100742.38;5034522;27;97419;-53
2023/08/08 04:34:06;;;;;;;1.77;1.67;;;;;;;17.41;60.13;100739.59;5030471;27;97147;-53
2023/08/08 04:36:31;;;;;;;4.40;2.23;;;;;;;17.42;60.11;100740.34;5032672;27;110424;-53
2023/08/08 04:38:57;;;;;;;2.20;1.83;;;;;;;17.44;60.10;100737.78;5030492;27;108131;-53
2023/08/08 04:41:22;;;;;;;2.90;1.70;;;;;;;17.44;60.29;100735.75;5034581;27;97299;-53
2023/08/08 04:43:47;;;;;;;2.00;1.90;;;;;;;17.45;60.27;100733.72;5033478;27;97073;-54
2023/08/08 04:46:13;;;;;;;2.97;1.40;;;;;;;17.46;60.30;100737.97;5028691;27;103017;-53
2023/08/08 04:48:39;;;;;;;2.70;2.00;;;;;;;17.47;60.26;100743.03;5035824;27;97483;-53
2023/08/08 04:51:05;;;;;;;2.70;1.43;;;;;;;17.47;60.24;100725.59;5032798;27;97097;-54
2023/08/08 04:53:30;;;;;;;1.40;1.27;;;;;;;17.47;60.23;100725.59;5033279;27;97070;-53
2023/08/08 04:55:55;;;;;;;1.37;1.27;;;;;;;17.49;60.19;100723.00;5031085;27;96881;-53
2023/08/08 04:58:20;;;;;;;1.80;1.70;;;;;;;17.47;60.38;100718.00;5030258;27;99040;-53
2023/08/08 05:00:46;;;;;;;3.33;1.90;;;;;;;17.48;60.56;100725.03;5037138;27;97412;-53
2023/08/08 05:03:11;;;;;;;1.73;1.33;;;;;;;17.50;60.19;100728.06;5036887;27;96843;-55
2023/08/08 05:05:37;;;;;;;4.77;1.77;;;;;;;17.54;60.40;100725.69;5035479;27;97865;-54
2023/08/08 05:08:02;;;;;;;1.80;1.50;;;;;;;17.57;60.42;100723.88;5032123;27;97373;-54
2023/08/08 05:10:28;;;;;;;6.50;1.60;;;;;;;17.57;60.47;100713.50;5036044;27;96739;-53
2023/08/08 05:12:53;;;;;;;2.23;1.77;;;;;;;17.56;60.37;100711.97;5036041;27;96858;-54
2023/08/08 05:15:18;;;;;;;2.40;1.70;;;;;;;17.60;60.37;100712.41;5035429;27;106812;-54
2023/08/08 05:17:44;;;;;;;1.50;1.40;;;;;;;17.61;60.35;100713.91;5034790;27;105215;-54
2023/08/08 05:20:10;;;;;;;1.43;1.33;;;;;;;17.62;60.43;100715.41;5035887;27;97200;-53
2023/08/08 05:22:36;;;;;;;1.30;1.20;;;;;;;17.65;60.55;100714.31;5035552;27;96878;-54
2023/08/08 05:25:01;;;;;;;1.80;1.57;;;;;;;17.67;60.49;100714.53;5041144;27;98615;-54
2023/08/08 05:27:26;;;;;;;3.10;1.47;;;;;;;17.69;60.45;100711.94;5036008;27;96971;-54
2023/08/08 05:29:52;;;;;;;1.63;1.50;;;;;;;17.74;60.51;100724.22;5036210;27;97230;-54
2023/08/08 05:32:17;;;;;;;3.23;2.40;;;;;;;17.91;60.73;100725.34;5034667;27;96755;-53
2023/08/08 05:34:42;;;;;;;1.83;1.70;;;;;;;17.81;60.72;100721.53;5034029;27;105976;-53
2023/08/08 05:37:08;;;;;;;1.63;1.53;;;;;;;17.78;60.80;100719.84;5035513;27;109705;-54
2023/08/08 05:39:33;;;;;;;1.63;1.50;;;;;;;17.77;60.61;100723.91;5035871;27;97133;-54
2023/08/08 05:41:58;;;;;;;1.87;1.40;;;;;;;17.77;60.69;100726.69;5034866;27;97062;-54
2023/08/08 05:44:24;;;;;;;1.70;1.43;;;;;;;17.78;60.68;100717.06;5030481;27;97207;-54
2023/08/08 05:46:49;;;;;;;1.67;1.43;;;;;;;17.78;60.68;100717.06;5036373;27;97134;-54
2023/08/08 05:49:14;;;;;;;4.40;1.73;;;;;;;17.79;60.71;100726.16;5034823;27;96994;-54
2023/08/08 05:51:40;;;;;;;2.50;1.90;;;;;;;17.82;60.62;100723.03;5032558;27;97017;-54
2023/08/08 05:54:05;;;;;;;7.23;2.20;;;;;;;17.86;60.67;100717.91;5034684;27;97207;-54
2023/08/08 05:56:36;;;;;;;4.40;1.50;;;;;;;17.91;60.62;100722.56;5037766;27;97481;-54
2023/08/08 05:59:01;;;;;;;1.60;1.50;;;;;;;17.94;60.63;100732.63;5035224;27;96678;-55
2023/08/08 06:01:27;;;;;;;4.70;1.70;;;;;;;17.99;60.51;100728.22;5035494;27;97274;-55
2023/08/08 06:03:52;;;;;;;3.30;1.53;;;;;;;18.07;60.76;100733.84;5030495;27;99976;-53
2023/08/08 06:06:18;;;;;;;3.47;1.67;;;;;;;18.16;60.64;100727.81;5035468;27;97118;-54
2023/08/08 06:08:43;;;;;;;1.77;1.67;;;;;;;18.22;60.37;100737.53;5033762;27;96690;-54
2023/08/08 06:11:09;;;;;;;1.93;1.73;;;;;;;18.28;60.33;100726.25;5033418;27;98242;-56
2023/08/08 06:13:34;;;;;;;2.53;1.67;;;;;;;18.36;60.43;100735.41;5037108;27;98007;-54
2023/08/08 06:16:01;;;;;;;1.50;1.40;;;;;;;18.42;60.25;100736.03;5031815;27;96978;-53
2023/08/08 06:18:26;;;;;;;1.53;1.23;;;;;;;18.47;60.49;100729.59;5035290;27;97157;-54
2023/08/08 06:20:51;;;;;;;1.40;1.30;;;;;;;18.53;60.42;100721.84;5033236;27;97014;-56
2023/08/08 06:23:17;;;;;;;2.60;1.50;;;;;;;18.59;60.32;100722.44;5033266;27;97266;-53
2023/08/08 06:25:42;;;;;;;4.23;1.77;;;;;;;18.62;60.23;100733.25;5033593;27;97001;-54
2023/08/08 06:28:07;;;;;;;2.17;1.97;;;;;;;18.65;60.12;100723.78;5035258;27;96718;-55
2023/08/08 06:30:33;;;;;;;3.17;1.50;;;;;;;18.74;60.20;100719.75;5033976;27;97041;-55
2023/08/08 06:32:58;;;;;;;1.63;1.53;;;;;;;18.84;60.14;100717.97;5034358;27;97354;-54
2023/08/08 06:35:23;;;;;;;4.03;1.87;;;;;;;18.93;60.04;100725.84;5033742;27;96868;-54
2023/08/08 06:37:49;;;;;;;4.77;1.80;;;;;;;19.04;59.86;100719.97;5035106;27;97285;-55
2023/08/08 06:40:16;;;;;;;2.10;1.50;;;;;;;19.12;59.77;100719.97;5033811;27;97462;-55
2023/08/08 06:42:41;;;;;;;1.63;1.47;;;;;;;19.16;59.78;100723.91;5033087;27;96670;-55
2023/08/08 06:45:07;;;;;;;1.57;1.47;;;;;;;19.18;59.68;100729.69;5034555;27;97742;-54
2023/08/08 06:47:32;;;;;;;2.50;1.27;;;;;;;19.18;59.48;100718.53;5031654;27;97167;-55
2023/08/08 06:49:57;;;;;;;3.60;1.80;;;;;;;19.22;59.51;100720.97;5032655;27;97331;-54
2023/08/08 06:52:23;;;;;;;4.50;1.50;;;;;;;19.26;59.46;100713.00;5034318;27;97009;-54
2023/08/08 06:54:48;;;;;;;2.03;1.63;;;;;;;19.34;59.61;100716.56;5034373;27;96997;-54
2023/08/08 06:57:13;;;;;;;4.90;1.80;;;;;;;19.34;59.57;100708.19;5035990;27;96687;-56
2023/08/08 06:59:39;;;;;;;3.17;1.73;;;;;;;19.35;59.42;100716.03;5034731;27;96837;-55
2023/08/08 07:02:05;;;;;;;2.40;1.20;;;;;;;19.38;59.33;100730.91;5031353;27;107634;-53
2023/08/08 07:04:30;;;;;;;1.40;1.20;;;;;;;19.40;59.40;100725.53;5033391;27;96976;-55
2023/08/08 07:06:56;;;;;;;3.80;1.47;;;;;;;19.44;59.32;100721.09;5034991;27;97315;-54
2023/08/08 07:09:21;;;;;;;4.83;2.00;;;;;;;19.53;59.22;100724.66;5033197;27;97257;-55
2023/08/08 07:11:47;;;;;;;2.27;1.57;;;;;;;19.57;58.98;100734.16;5035062;27;97290;-54
2023/08/08 07:14:13;;;;;;;2.83;1.07;;;;;;;19.64;59.04;100725.06;5031151;27;97621;-54
2023/08/08 07:16:38;;;;;;;2.60;1.17;;;;;;;19.72;58.97;100725.84;5034348;27;97023;-56
2023/08/08 07:19:03;;;;;;;6.10;1.60;;;;;;;19.77;58.85;100729.75;5034075;27;97067;-55
2023/08/08 07:21:29;;;;;;;2.90;1.47;;;;;;;19.79;58.75;100721.56;5033690;27;97382;-54
2023/08/08 07:23:54;;;;;;;6.40;1.60;;;;;;;19.81;58.60;100716.91;5031163;27;97008;-54
2023/08/08 07:26:22;;;;;;;2.47;1.70;;;;;;;19.85;58.46;100710.97;5035896;27;97180;-55
2023/08/08 07:28:47;;;;;;;1.50;1.30;;;;;;;19.92;58.73;100710.25;5032772;27;97120;-55
2023/08/08 07:31:12;;;;;;;6.00;1.40;;;;;;;20.02;58.45;100702.81;5031478;27;108276;-54
2023/08/08 07:33:37;;;;;;;1.30;1.20;;;;;;;20.17;58.51;100702.81;5035042;27;97348;-54
2023/08/08 07:36:04;;;;;;;1.47;1.37;;;;;;;20.30;58.18;100688.69;5035464;27;97114;-55
2023/08/08 07:38:29;;;;;;;3.23;1.33;;;;;;;20.41;57.72;100688.31;5033956;27;97133;-54
2023/08/08 07:40:55;;;;;;;2.27;1.20;;;;;;;20.49;57.86;100696.69;5034335;27;96969;-54
2023/08/08 07:43:20;;;;;;;1.60;1.43;;;;;;;20.53;57.35;100688.69;5033391;27;97145;-55
2023/08/08 07:45:46;;;;;;;2.57;1.27;;;;;;;20.55;57.23;100684.00;5032449;27;97074;-55
2023/08/08 07:48:12;;;;;;;3.20;1.20;;;;;;;20.59;57.20;100687.19;5035788;27;97296;-54
2023/08/08 07:50:37;;;;;;;1.00;0.90;;;;;;;20.61;57.04;100692.94;5032665;27;97344;-54
2023/08/08 07:53:02;;;;;;;2.60;1.37;;;;;;;20.64;57.10;100691.09;5033407;27;103236;-55
2023/08/08 07:55:28;;;;;;;3.40;1.10;;;;;;;20.61;56.96;100692.19;5030340;27;96738;-55
2023/08/08 07:57:53;;;;;;;4.33;1.10;;;;;;;20.62;56.83;100688.13;5032408;27;97043;-55
2023/08/08 08:00:18;;;;;;;2.10;1.10;;;;;;;20.69;56.98;100690.88;5030990;27;97709;-54
2023/08/08 08:02:45;;;;;;;4.57;1.10;;;;;;;20.76;56.76;100690.13;5033248;27;97187;-55
2023/08/08 08:05:11;;;;;;;2.37;1.30;;;;;;;20.83;56.43;100688.63;5033718;27;97189;-55
2023/08/08 08:07:38;;;;;;;1.93;1.00;;;;;;;20.85;56.26;100686.75;5031988;27;96950;-55
2023/08/08 08:10:05;;;;;;;3.17;1.40;;;;;;;20.81;56.21;100680.81;5031686;27;97221;-56
2023/08/08 08:12:31;;;;;;;1.90;1.20;;;;;;;20.81;56.20;100672.41;5032909;27;96999;-53
2023/08/08 08:14:56;;;;;;;2.13;1.00;;;;;;;20.77;56.11;100680.41;5034597;27;97230;-54
2023/08/08 08:17:22;;;;;;;2.00;0.93;;;;;;;20.65;56.14;100675.78;5032942;27;97265;-55
2023/08/08 08:19:47;;;;;;;2.50;1.40;;;;;;;20.60;56.36;100683.06;5034776;27;97453;-55
2023/08/08 08:22:12;;;;;;;1.83;1.30;;;;;;;20.59;56.16;100692.78;5030487;27;97024;-54
2023/08/08 08:24:38;;;;;;;2.70;1.13;;;;;;;20.63;56.24;100684.75;5030802;27;96793;-56
2023/08/08 08:27:03;;;;;;;0.90;0.70;;;;;;;20.68;56.31;100678.22;5034326;27;97254;-54
2023/08/08 08:29:28;;;;;;;1.73;1.10;;;;;;;20.70;55.94;100670.00;5033942;27;97446;-55
2023/08/08 08:31:54;;;;;;;1.07;0.90;;;;;;;20.76;55.89;100672.59;5032120;27;110096;-53
2023/08/08 08:34:19;;;;;;;2.50;1.13;;;;;;;20.80;55.81;100673.72;5032636;27;97027;-55
2023/08/08 08:36:44;;;;;;;4.30;1.23;;;;;;;20.95;55.55;100663.78;5036002;27;96785;-55
2023/08/08 08:39:10;;;;;;;3.63;1.20;;;;;;;21.07;55.12;100662.09;5034827;27;96745;-55
2023/08/08 08:41:39;;;;;;;2.37;1.13;;;;;;;21.16;55.02;100670.66;5035904;27;97221;-55
2023/08/08 08:44:06;;;;;;;1.37;1.03;;;;;;;21.21;54.69;100652.16;5035437;27;97259;-55
2023/08/08 08:46:32;;;;;;;2.13;1.03;;;;;;;21.18;54.62;100658.88;5037698;27;96868;-54
2023/08/08 08:48:59;;;;;;;1.17;0.90;;;;;;;21.12;54.26;100663.94;5036799;27;97047;-56
2023/08/08 08:51:25;;;;;;;4.50;1.13;;;;;;;21.04;54.85;100663.97;5032867;27;97202;-56
2023/08/08 08:53:51;;;;;;;2.03;1.00;;;;;;;20.96;54.69;100668.06;5033072;27;96867;-55
2023/08/08 08:56:16;;;;;;;3.23;1.17;;;;;;;20.88;55.13;100668.09;5034378;27;96831;-54
2023/08/08 08:58:42;;;;;;;7.20;1.17;;;;;;;20.77;55.43;100669.22;5035222;27;97518;-56
2023/08/08 09:01:09;;;;;;;3.87;1.17;;;;;;;20.63;55.69;100678.41;5036128;27;97102;-55
2023/08/08 09:03:35;;;;;;;2.93;1.10;;;;;;;20.51;56.15;100677.31;5037485;27;97063;-54
2023/08/08 09:06:02;;;;;;;4.20;1.20;;;;;;;20.45;56.27;100677.50;5034099;27;97037;-55
2023/08/08 09:08:27;;;;;;;2.17;1.10;;;;;;;20.43;56.25;100674.53;5034180;27;98049;-54
2023/08/08 09:10:52;;;;;;;1.17;1.00;;;;;;;20.53;56.39;100678.22;5034205;27;98060;-54
2023/08/08 09:13:17;;;;;;;0.90;0.90;;;;;;;20.64;56.44;100677.84;5034226;27;97322;-54
2023/08/08 09:15:47;;;;;;;1.80;0.77;;;;;;;20.71;56.31;100670.75;5035011;27;97173;-55
2023/08/08 09:18:12;;;;;;;3.77;1.40;;;;;;;20.75;56.39;100676.72;5037515;27;97232;-55
2023/08/08 09:20:37;;;;;;;1.80;1.10;;;;;;;20.82;56.13;100668.28;5038888;27;97135;-55
2023/08/08 09:23:03;;;;;;;1.53;1.20;;;;;;;20.90;56.10;100665.50;5034679;27;96725;-56
2023/08/08 09:25:28;;;;;;;1.23;1.10;;;;;;;21.09;55.94;100667.88;5037541;27;97034;-54
2023/08/08 09:27:54;;;;;;;2.80;0.93;;;;;;;21.29;55.73;100661.25;5034161;27;96594;-55
2023/08/08 09:30:20;;;;;;;2.00;1.00;;;;;;;21.46;55.80;100659.28;5032807;27;97076;-55
2023/08/08 09:32:45;;;;;;;3.43;1.10;;;;;;;21.59;55.27;100661.09;5034269;27;97323;-55
2023/08/08 09:35:11;;;;;;;1.43;0.83;;;;;;;21.75;55.17;100658.94;5036221;27;97270;-56
2023/08/08 09:37:37;;;;;;;1.67;1.17;;;;;;;22.02;55.14;100657.06;5034173;27;97069;-55
2023/08/08 09:40:05;;;;;;;1.07;1.00;;;;;;;22.17;54.38;100656.97;5035382;27;100657;-54
2023/08/08 09:42:31;;;;;;;4.33;1.10;;;;;;;22.17;53.85;100660.50;5034605;27;96802;-55
2023/08/08 09:44:57;;;;;;;2.33;0.97;;;;;;;22.05;53.82;100655.94;5034491;27;97326;-55
2023/08/08 09:47:24;;;;;;;1.77;1.10;;;;;;;22.01;53.98;100661.94;5032956;27;97051;-54
2023/08/08 09:49:50;;;;;;;1.50;0.83;;;;;;;21.99;53.76;100658.97;5035879;27;97815;-54
2023/08/08 09:52:16;;;;;;;2.40;0.80;;;;;;;22.07;53.64;100656.84;5036301;27;96778;-55
2023/08/08 09:54:42;;;;;;;1.57;0.83;;;;;;;22.16;53.50;100661.06;5037063;27;99039;-54
2023/08/08 09:57:08;;;;;;;2.10;0.87;;;;;;;22.22;53.28;100662.31;5034954;27;97338;-54
2023/08/08 09:59:34;;;;;;;0.93;0.90;;;;;;;22.29;53.23;100655.16;5033829;27;104545;-54
2023/08/08 10:02:01;;;;;;;2.03;1.30;;;;;;;22.39;52.92;100653.94;5034512;27;96774;-55
2023/08/08 10:04:26;;;;;;;5.10;1.03;;;;;;;22.56;52.87;100636.41;5033150;27;97020;-54
2023/08/08 10:06:51;;;;;;;2.00;0.97;;;;;;;22.66;52.48;100650.53;5033528;27;97277;-55
2023/08/08 10:09:17;;;;;;;2.37;1.00;;;;;;;22.78;52.56;100655.06;5033904;27;97510;-54
2023/08/08 10:11:44;;;;;;;1.33;0.80;;;;;;;22.92;52.28;100644.25;5035366;27;97002;-55
2023/08/08 10:14:11;;;;;;;0.80;0.80;;;;;;;22.93;51.73;100642.94;5035926;27;96941;-54
2023/08/08 10:16:39;;;;;;;1.27;0.90;;;;;;;22.77;51.18;100638.81;5034406;27;97403;-54
2023/08/08 10:19:05;;;;;;;1.83;0.90;;;;;;;22.65;51.88;100644.16;5037586;27;97351;-53
2023/08/08 10:21:35;;;;;;;1.17;0.70;;;;;;;22.63;51.27;100637.69;5034559;27;97371;-54
2023/08/08 10:24:20;;;;;;;2.57;1.07;;;;;;;22.54;51.57;100641.09;5034737;27;96849;-55
2023/08/08 10:26:52;;;;;;;1.63;0.90;;;;;;;22.55;51.35;100636.97;5035914;27;96619;-55
2023/08/08 10:29:19;;;;;;;3.07;0.77;;;;;;;22.73;52.14;100632.88;5034033;27;97025;-54
2023/08/08 10:31:52;;;;;;;1.00;0.90;;;;;;;22.98;51.41;100634.25;5037456;27;96886;-55
2023/08/08 10:34:20;;;;;;;2.10;0.90;;;;;;;23.19;51.30;100625.41;5033830;27;97367;-55
2023/08/08 10:36:52;;;;;;;3.77;1.20;;;;;;;23.40;51.27;100625.69;5032217;27;96925;-54
2023/08/08 10:39:18;;;;;;;1.73;0.87;;;;;;;23.59;51.06;100634.19;5033143;27;97410;-54
2023/08/08 10:41:46;;;;;;;1.43;0.83;;;;;;;23.68;50.56;100625.09;5034520;27;97242;-54
2023/08/08 10:44:11;;;;;;;1.50;1.00;;;;;;;23.65;50.39;100628.31;5034661;27;97215;-54
2023/08/08 10:46:41;;;;;;;1.23;0.80;;;;;;;23.53;49.76;100630.94;5034655;27;97840;-55
2023/08/08 10:49:06;;;;;;;2.00;0.83;;;;;;;23.46;50.38;100633.84;5033864;27;97124;-54
2023/08/08 10:51:45;;;;;;;4.93;0.60;;;;;;;23.39;48.33;100635.44;5033545;27;97371;-55
2023/08/08 10:54:21;;;;;;;1.47;0.73;;;;;;;23.24;49.30;100629.28;5035217;27;96695;-54
2023/08/08 10:56:54;;;;;;;2.47;0.87;;;;;;;23.25;48.11;100636.34;5033582;27;97682;-54
2023/08/08 10:59:25;;;;;;;0.90;0.77;;;;;;;23.25;49.63;100627.94;5031576;27;96637;-54
2023/08/08 11:01:52;;;;;;;2.30;0.80;;;;;;;23.15;49.39;100625.09;5031121;27;97228;-54
2023/08/08 11:04:26;;;;;;;1.17;0.60;;;;;;;23.02;49.43;100626.16;5035178;27;97202;-54
2023/08/08 11:06:53;;;;;;;1.00;0.60;;;;;;;22.87;49.75;100625.59;5036772;27;97427;-55
2023/08/08 11:09:19;;;;;;;1.40;0.83;;;;;;;22.78;49.96;100634.69;5034261;27;97898;-54
2023/08/08 11:11:45;;;;;;;1.70;0.80;;;;;;;22.79;49.67;100627.75;5036845;27;97025;-55
2023/08/08 11:14:19;;;;;;;1.10;0.60;;;;;;;22.90;47.74;100621.63;5034778;27;96968;-53
2023/08/08 11:16:46;;;;;;;0.90;0.80;;;;;;;22.91;49.31;100620.34;5033734;27;97135;-54
2023/08/08 11:19:12;;;;;;;2.40;0.90;;;;;;;22.93;48.99;100620.50;5032160;27;97071;-54